Time;durP1;ratioP1;P1;durP2;ratioP2;P2;SDS_P1;SDS_P2;PMS_P1;PMS_P2;Temp;Humidity;BMP_temperature;BMP_pressure;BME280_temperature;BME280_humidity;BME280_pressure;Samples;Min_cycle;Max_cycle;Signal;HPM_P1;HPM_P2
2022/09/02 00:00:43;;;;;;;6.47;6.07;;;15.30;99.90;;;;;;5051760;28;20229;-49
2022/09/02 00:03:15;;;;;;;6.90;6.50;;;15.30;99.90;;;;;;5045536;28;20575;-48
2022/09/02 00:05:42;;;;;;;6.53;6.13;;;15.40;99.90;;;;;;5051597;28;20690;-47
2022/09/02 00:08:10;;;;;;;6.40;6.00;;;15.30;99.90;;;;;;5052737;28;20293;-48
2022/09/02 00:10:39;;;;;;;6.17;5.60;;;15.30;99.90;;;;;;5052954;28;20190;-48
2022/09/02 00:13:08;;;;;;;6.67;6.23;;;15.20;99.90;;;;;;5052728;28;20332;-50
2022/09/02 00:15:36;;;;;;;5.90;5.60;;;15.30;99.90;;;;;;5052305;28;20213;-49
2022/09/02 00:18:03;;;;;;;7.13;6.63;;;15.30;99.90;;;;;;5051199;28;20209;-48
2022/09/02 00:20:32;;;;;;;6.37;5.93;;;15.30;99.90;;;;;;5052824;28;20218;-48
2022/09/02 00:23:00;;;;;;;6.33;5.93;;;15.30;99.90;;;;;;5051891;28;20205;-48
2022/09/02 00:25:27;;;;;;;6.63;6.23;;;15.30;99.90;;;;;;5051706;28;20197;-49
2022/09/02 00:27:54;;;;;;;5.63;5.33;;;15.30;99.90;;;;;;5052833;28;20206;-48
2022/09/02 00:30:21;;;;;;;7.23;6.67;;;15.20;99.90;;;;;;5050654;28;20655;-49
2022/09/02 00:32:48;;;;;;;6.20;5.90;;;15.30;99.90;;;;;;5049777;28;20656;-49
2022/09/02 00:35:15;;;;;;;5.97;5.57;;;15.30;99.90;;;;;;5045352;28;20228;-49
2022/09/02 00:37:43;;;;;;;5.87;5.43;;;15.20;99.90;;;;;;5051024;28;20232;-48
2022/09/02 00:40:12;;;;;;;6.23;5.83;;;15.20;99.90;;;;;;5043105;28;20753;-49
2022/09/02 00:42:40;;;;;;;6.03;5.53;;;15.20;99.90;;;;;;5043170;28;20695;-49
2022/09/02 00:45:08;;;;;;;5.53;5.30;;;15.20;99.90;;;;;;5052465;28;20205;-49
2022/09/02 00:47:36;;;;;;;6.60;6.10;;;15.20;99.90;;;;;;5049395;28;20714;-49
2022/09/02 00:50:06;;;;;;;6.43;5.93;;;15.10;99.90;;;;;;5046032;28;20240;-48
2022/09/02 00:52:36;;;;;;;5.87;5.63;;;15.00;99.90;;;;;;5052049;28;20209;-48
2022/09/02 00:55:10;;;;;;;5.33;5.13;;;14.90;99.90;;;;;;5043492;28;20198;-48
2022/09/02 00:57:41;;;;;;;6.37;6.03;;;14.80;99.90;;;;;;5049462;28;20581;-48
2022/09/02 01:00:11;;;;;;;6.03;5.73;;;14.70;99.90;;;;;;5046803;28;20606;-49
2022/09/02 01:02:41;;;;;;;6.67;6.20;;;14.70;99.90;;;;;;5047738;28;20208;-48
2022/09/02 01:05:11;;;;;;;6.13;5.83;;;14.60;99.90;;;;;;5051709;28;20255;-49
2022/09/02 01:07:39;;;;;;;5.87;5.47;;;14.50;99.90;;;;;;5041097;28;20244;-49
2022/09/02 01:10:11;;;;;;;5.87;5.57;;;14.50;99.90;;;;;;5048609;28;20208;-49
2022/09/02 01:12:38;;;;;;;6.60;6.10;;;14.40;99.90;;;;;;5051710;28;20194;-48
2022/09/02 01:15:09;;;;;;;6.57;6.17;;;14.40;99.90;;;;;;5051785;28;20208;-49
2022/09/02 01:17:39;;;;;;;6.33;5.93;;;14.40;99.90;;;;;;5043884;28;20253;-49
2022/09/02 01:20:11;;;;;;;6.20;5.90;;;14.40;99.90;;;;;;5042991;28;20259;-48
2022/09/02 01:22:41;;;;;;;7.00;6.50;;;14.30;99.90;;;;;;5051840;28;20201;-48
2022/09/02 01:25:12;;;;;;;6.17;5.77;;;14.30;99.90;;;;;;5050761;28;20205;-49
2022/09/02 01:27:39;;;;;;;6.27;5.97;;;14.30;99.90;;;;;;5051452;28;20762;-49
2022/09/02 01:30:11;;;;;;;8.03;7.33;;;14.30;99.90;;;;;;5042347;28;20233;-49
2022/09/02 01:32:38;;;;;;;6.63;6.23;;;14.30;99.90;;;;;;5047358;28;20285;-49
2022/09/02 01:35:06;;;;;;;6.77;6.27;;;14.30;99.90;;;;;;5051437;28;20198;-49
2022/09/02 01:37:34;;;;;;;6.33;5.93;;;14.20;99.90;;;;;;5051688;28;20221;-48
2022/09/02 01:40:03;;;;;;;5.80;5.53;;;14.20;99.90;;;;;;5051571;28;20208;-49
2022/09/02 01:42:31;;;;;;;5.37;5.17;;;14.20;99.90;;;;;;5050450;28;20230;-49
2022/09/02 01:44:58;;;;;;;6.43;6.03;;;14.20;99.90;;;;;;5049496;28;20205;-48
2022/09/02 01:47:26;;;;;;;7.50;7.00;;;14.20;99.90;;;;;;5051446;28;20217;-49
2022/09/02 01:49:54;;;;;;;6.50;6.10;;;14.20;99.90;;;;;;5047860;28;20296;-49
2022/09/02 01:52:23;;;;;;;5.87;5.47;;;14.10;99.90;;;;;;5045330;28;20202;-50
2022/09/02 01:54:50;;;;;;;7.17;6.57;;;14.10;99.90;;;;;;5041816;28;20821;-49
2022/09/02 01:57:18;;;;;;;6.93;6.53;;;14.10;99.90;;;;;;5051222;28;20222;-50
2022/09/02 01:59:45;;;;;;;7.40;6.90;;;14.00;99.90;;;;;;5040062;28;20564;-49
2022/09/02 02:02:12;;;;;;;7.30;6.87;;;14.00;99.90;;;;;;5050402;28;20316;-47
2022/09/02 02:04:39;;;;;;;6.50;6.00;;;14.00;99.90;;;;;;5051151;28;20198;-48
2022/09/02 02:07:07;;;;;;;7.90;7.30;;;14.00;99.90;;;;;;5051299;28;20224;-48
2022/09/02 02:09:34;;;;;;;5.43;5.13;;;14.00;99.90;;;;;;5042205;28;20233;-48
2022/09/02 02:12:01;;;;;;;7.23;6.63;;;13.90;99.90;;;;;;5041681;28;20198;-49
2022/09/02 02:14:30;;;;;;;6.60;6.20;;;14.00;99.90;;;;;;5050566;28;20843;-49
2022/09/02 02:16:58;;;;;;;6.17;5.73;;;13.90;99.90;;;;;;5050044;28;20287;-51
2022/09/02 02:19:25;;;;;;;6.57;6.17;;;13.90;99.90;;;;;;5050515;28;20263;-49
2022/09/02 02:21:52;;;;;;;7.40;6.90;;;13.90;99.90;;;;;;5051419;28;20245;-49
2022/09/02 02:24:19;;;;;;;6.70;6.03;;;13.90;99.90;;;;;;5053512;28;20260;-48
2022/09/02 02:26:47;;;;;;;6.43;5.93;;;13.90;99.90;;;;;;5055092;28;20271;-49
2022/09/02 02:29:14;;;;;;;6.43;5.93;;;13.90;99.90;;;;;;5054495;28;20637;-49
2022/09/02 02:31:44;;;;;;;6.70;6.20;;;13.90;99.90;;;;;;5055116;28;20197;-47
2022/09/02 02:34:11;;;;;;;6.03;5.70;;;13.90;99.90;;;;;;5049356;28;20285;-48
2022/09/02 02:36:39;;;;;;;5.93;5.73;;;14.00;99.90;;;;;;5050964;28;20271;-48
2022/09/02 02:39:07;;;;;;;6.53;5.97;;;14.00;99.90;;;;;;5054002;28;20241;-48
2022/09/02 02:41:34;;;;;;;5.97;5.67;;;14.00;99.90;;;;;;5054920;28;20589;-49
2022/09/02 02:44:01;;;;;;;5.67;5.27;;;13.90;99.90;;;;;;5054984;28;20225;-49
2022/09/02 02:46:29;;;;;;;6.50;6.13;;;13.90;99.90;;;;;;5045921;28;20225;-49
2022/09/02 02:48:59;;;;;;;5.83;5.43;;;13.80;99.90;;;;;;5052642;28;20214;-49
2022/09/02 02:51:26;;;;;;;5.80;5.50;;;13.70;99.90;;;;;;5050833;28;20198;-48
2022/09/02 02:53:53;;;;;;;5.53;5.27;;;13.60;99.90;;;;;;5053756;28;20260;-49
2022/09/02 02:56:21;;;;;;;5.53;5.33;;;13.60;99.90;;;;;;5054961;28;20275;-48
2022/09/02 02:58:48;;;;;;;5.83;5.43;;;13.50;99.90;;;;;;5053858;28;20288;-50
2022/09/02 03:01:15;;;;;;;5.40;5.10;;;13.50;99.90;;;;;;5049369;28;20769;-48
2022/09/02 03:03:43;;;;;;;5.70;5.40;;;13.50;99.90;;;;;;5054345;28;20618;-49
2022/09/02 03:06:11;;;;;;;5.80;5.30;;;13.40;99.90;;;;;;5046256;28;20218;-50
2022/09/02 03:08:38;;;;;;;5.50;5.20;;;13.40;99.90;;;;;;5051244;28;20232;-49
2022/09/02 03:11:06;;;;;;;5.10;4.90;;;13.40;99.90;;;;;;5051062;28;20737;-50
2022/09/02 03:13:33;;;;;;;5.87;5.53;;;13.40;99.90;;;;;;5051128;28;20475;-49
2022/09/02 03:16:00;;;;;;;6.23;5.83;;;13.40;99.90;;;;;;5054205;28;20253;-48
2022/09/02 03:18:27;;;;;;;6.13;5.83;;;13.40;99.90;;;;;;5054362;28;20715;-50
2022/09/02 03:20:54;;;;;;;7.00;6.50;;;13.40;99.90;;;;;;5052994;28;20702;-49
2022/09/02 03:23:22;;;;;;;7.00;6.60;;;13.40;99.90;;;;;;5041504;28;20627;-49
2022/09/02 03:25:49;;;;;;;7.03;6.53;;;13.40;99.90;;;;;;5053030;28;20222;-48
2022/09/02 03:28:17;;;;;;;7.37;6.77;;;13.40;99.90;;;;;;5051500;28;20295;-48
2022/09/02 03:30:46;;;;;;;6.23;5.80;;;13.40;99.90;;;;;;5051595;28;20206;-49
2022/09/02 03:33:15;;;;;;;6.50;6.20;;;13.40;99.90;;;;;;5051886;28;20271;-49
2022/09/02 03:35:44;;;;;;;6.87;6.27;;;13.40;99.90;;;;;;5051524;28;20218;-49
2022/09/02 03:38:11;;;;;;;6.90;6.40;;;13.40;99.90;;;;;;5051074;28;20236;-48
2022/09/02 03:40:40;;;;;;;5.60;5.30;;;13.40;99.90;;;;;;5052568;28;20197;-49
2022/09/02 03:43:07;;;;;;;5.67;5.27;;;13.40;99.90;;;;;;5049758;28;20275;-50
2022/09/02 03:45:34;;;;;;;6.30;5.93;;;13.30;99.90;;;;;;5052499;28;20251;-49
2022/09/02 03:48:01;;;;;;;5.83;5.63;;;13.40;99.90;;;;;;5052856;28;20649;-48
2022/09/02 03:50:32;;;;;;;6.77;6.37;;;13.40;99.90;;;;;;5053690;28;20205;-49
2022/09/02 03:53:00;;;;;;;6.20;5.83;;;13.40;99.90;;;;;;5052879;28;20726;-48
2022/09/02 03:55:28;;;;;;;7.60;7.07;;;13.40;99.90;;;;;;5049671;28;20194;-48
2022/09/02 03:57:56;;;;;;;6.47;5.93;;;13.40;99.90;;;;;;5051081;28;20891;-49
2022/09/02 04:00:27;;;;;;;7.70;7.03;;;13.30;99.90;;;;;;5051356;28;20280;-48
2022/09/02 04:02:55;;;;;;;6.77;6.37;;;13.30;99.90;;;;;;5044191;28;20221;-48
2022/09/02 04:05:22;;;;;;;7.10;6.60;;;13.30;99.90;;;;;;5052848;28;20259;-49
2022/09/02 04:07:51;;;;;;;6.57;6.10;;;13.30;99.90;;;;;;5051634;28;20232;-48
2022/09/02 04:10:19;;;;;;;6.40;6.00;;;13.30;99.90;;;;;;5045068;28;20202;-49
2022/09/02 04:12:46;;;;;;;6.43;5.93;;;13.20;99.90;;;;;;5050021;28;20288;-48
2022/09/02 04:15:15;;;;;;;6.60;6.03;;;13.20;99.90;;;;;;5051965;28;20206;-48
2022/09/02 04:17:42;;;;;;;6.33;5.93;;;13.20;99.90;;;;;;5051698;28;20226;-49
2022/09/02 04:20:12;;;;;;;6.23;5.83;;;13.20;99.90;;;;;;5052503;28;20212;-48
2022/09/02 04:22:39;;;;;;;6.33;5.93;;;13.20;99.90;;;;;;5052869;28;20224;-49
2022/09/02 04:25:08;;;;;;;8.17;7.47;;;13.20;99.90;;;;;;5050286;28;20263;-50
2022/09/02 04:27:35;;;;;;;6.13;5.70;;;13.20;99.90;;;;;;5050100;28;20228;-48
2022/09/02 04:30:03;;;;;;;6.57;6.00;;;13.20;99.90;;;;;;5050154;28;20233;-49
2022/09/02 04:32:32;;;;;;;7.90;6.90;;;13.20;99.90;;;;;;5050834;28;20190;-48
2022/09/02 04:34:59;;;;;;;5.87;5.53;;;13.20;99.90;;;;;;5050921;28;20328;-49
2022/09/02 04:37:26;;;;;;;7.00;6.50;;;13.20;99.90;;;;;;5049192;28;20305;-49
2022/09/02 04:39:54;;;;;;;5.93;5.53;;;13.20;99.90;;;;;;5032357;28;20198;-49
2022/09/02 04:42:21;;;;;;;5.87;5.57;;;13.10;99.90;;;;;;5036574;28;20344;-48
2022/09/02 04:44:48;;;;;;;6.30;5.90;;;13.10;99.90;;;;;;5048739;28;20216;-49
2022/09/02 04:47:15;;;;;;;6.17;5.57;;;13.10;99.90;;;;;;5051931;28;20241;-48
2022/09/02 04:49:43;;;;;;;5.63;5.13;;;13.10;99.90;;;;;;5047551;28;20654;-48
2022/09/02 04:52:10;;;;;;;5.73;5.07;;;13.10;99.90;;;;;;5051177;28;20198;-48
2022/09/02 04:54:38;;;;;;;5.70;5.37;;;13.10;99.90;;;;;;5048262;28;20732;-48
2022/09/02 04:57:05;;;;;;;4.80;4.50;;;13.10;99.90;;;;;;5049745;28;20304;-50
2022/09/02 04:59:35;;;;;;;6.17;5.77;;;13.10;99.90;;;;;;5047534;28;20205;-48
2022/09/02 05:02:02;;;;;;;5.83;5.53;;;13.10;99.90;;;;;;5049325;28;20275;-49
2022/09/02 05:04:30;;;;;;;6.33;5.93;;;13.10;99.90;;;;;;5051279;28;20622;-48
2022/09/02 05:07:00;;;;;;;5.90;5.40;;;13.10;99.90;;;;;;5045969;28;20715;-49
2022/09/02 05:09:28;;;;;;;6.20;5.70;;;13.10;99.90;;;;;;5031721;28;20205;-49
2022/09/02 05:11:57;;;;;;;5.33;5.03;;;13.20;99.90;;;;;;5043569;28;20194;-48
2022/09/02 05:14:25;;;;;;;5.80;5.50;;;13.20;99.90;;;;;;5050193;28;20217;-49
2022/09/02 05:16:53;;;;;;;5.70;5.40;;;13.30;99.90;;;;;;5050951;28;20269;-49
2022/09/02 05:19:22;;;;;;;5.40;5.10;;;13.30;99.90;;;;;;5049892;28;20194;-49
2022/09/02 05:21:52;;;;;;;6.50;5.90;;;13.30;99.90;;;;;;5051325;28;20252;-48
2022/09/02 05:24:20;;;;;;;5.43;5.13;;;13.40;99.90;;;;;;5050406;28;20601;-49
2022/09/02 05:26:48;;;;;;;4.83;4.63;;;13.50;99.90;;;;;;5052142;28;20233;-49
2022/09/02 05:29:17;;;;;;;5.70;5.37;;;13.50;99.90;;;;;;5051359;28;20285;-48
2022/09/02 05:31:44;;;;;;;5.43;5.13;;;13.50;99.90;;;;;;5045996;28;20198;-49
2022/09/02 05:34:12;;;;;;;5.77;5.23;;;13.50;99.90;;;;;;5049729;28;20256;-48
2022/09/02 05:36:38;;;;;;;5.10;4.70;;;13.70;99.90;;;;;;5050186;28;20222;-49
2022/09/02 05:39:06;;;;;;;5.30;4.90;;;13.80;99.90;;;;;;5051187;28;20201;-48
2022/09/02 05:41:35;;;;;;;6.57;4.43;;;14.00;99.90;;;;;;5051050;28;20376;-49
2022/09/02 05:44:03;;;;;;;4.50;4.33;;;14.40;99.90;;;;;;5046379;28;20202;-48
2022/09/02 05:46:31;;;;;;;5.20;4.90;;;15.00;99.90;;;;;;5050269;28;20577;-49
2022/09/02 05:49:07;;;;;;;6.00;4.50;;;15.70;99.90;;;;;;5050232;28;20694;-47
2022/09/02 05:51:41;;;;;;;3.63;3.40;;;16.50;99.90;;;;;;5051115;28;20197;-49
2022/09/02 05:54:10;;;;;;;3.73;3.53;;;17.20;99.90;;;;;;5050705;28;20232;-48
2022/09/02 05:56:40;;;;;;;4.37;4.03;;;17.60;99.90;;;;;;5046705;28;20279;-48
2022/09/02 05:59:09;;;;;;;3.90;3.70;;;18.40;99.90;;;;;;5048965;28;20263;-48
2022/09/02 06:01:36;;;;;;;4.00;3.67;;;19.10;99.90;;;;;;5050576;28;20202;-49
2022/09/02 06:04:05;;;;;;;3.63;3.53;;;19.50;99.90;;;;;;5050608;28;20263;-49
2022/09/02 06:06:34;;;;;;;4.17;3.87;;;20.20;99.90;;;;;;5051067;28;20222;-49
2022/09/02 06:09:04;;;;;;;3.70;3.60;;;20.60;99.90;;;;;;5050131;28;20556;-48
2022/09/02 06:11:31;;;;;;;3.57;3.37;;;20.80;99.90;;;;;;5047868;28;20285;-49
2022/09/02 06:13:59;;;;;;;3.13;3.03;;;21.50;99.90;;;;;;5050696;28;20586;-49
2022/09/02 06:16:26;;;;;;;4.77;4.27;;;21.80;99.90;;;;;;5049975;28;20249;-49
2022/09/02 06:18:53;;;;;;;3.93;3.83;;;22.30;99.90;;;;;;5050511;28;20556;-48
2022/09/02 06:21:20;;;;;;;3.47;3.37;;;23.10;99.90;;;;;;5049413;28;20197;-49
2022/09/02 06:23:48;;;;;;;3.60;3.50;;;23.90;99.90;;;;;;5040928;28;20588;-48
2022/09/02 06:26:17;;;;;;;4.27;3.90;;;24.60;99.90;;;;;;5044295;28;21548;-48
2022/09/02 06:28:44;;;;;;;4.00;3.70;;;25.00;99.90;;;;;;5048627;28;20670;-50
2022/09/02 06:31:15;;;;;;;3.57;3.47;;;25.00;99.90;;;;;;5045320;28;20691;-49
2022/09/02 06:33:43;;;;;;;4.57;4.37;;;25.30;99.90;;;;;;5043873;28;20229;-49
2022/09/02 06:36:13;;;;;;;4.57;4.37;;;25.50;99.90;;;;;;5046002;28;20226;-49
2022/09/02 06:38:42;;;;;;;4.87;4.67;;;26.00;99.90;;;;;;5047920;28;20204;-48
2022/09/02 06:41:11;;;;;;;4.60;4.30;;;25.90;99.90;;;;;;5046408;28;20303;-49
2022/09/02 06:43:38;;;;;;;4.63;4.53;;;25.80;99.90;;;;;;5044796;28;20217;-49
2022/09/02 06:46:06;;;;;;;3.97;3.77;;;26.10;99.90;;;;;;5045068;28;20233;-49
2022/09/02 06:48:35;;;;;;;4.10;3.20;;;26.60;99.90;;;;;;5049111;28;20237;-48
2022/09/02 06:51:02;;;;;;;3.63;3.40;;;26.20;99.90;;;;;;5049027;28;20572;-48
2022/09/02 06:53:29;;;;;;;3.20;3.03;;;26.50;99.90;;;;;;5048966;28;20224;-49
2022/09/02 06:55:56;;;;;;;3.95;3.67;;;26.80;99.90;;;;;;5048243;28;20222;-48
2022/09/02 06:58:23;;;;;;;3.55;3.45;;;26.70;99.90;;;;;;5048769;28;20230;-48
2022/09/02 07:00:49;;;;;;;3.17;3.08;;;27.20;99.90;;;;;;5044597;28;20281;-48
2022/09/02 07:06:08;;;;;;;3.45;3.35;;;27.20;99.90;;;;;;5045661;28;20224;-50
2022/09/02 07:08:36;;;;;;;3.83;3.50;;;26.90;99.90;;;;;;5049483;28;20194;-50
2022/09/02 07:11:03;;;;;;;3.03;2.88;;;27.20;99.90;;;;;;5052101;28;20719;-50
2022/09/02 07:13:30;;;;;;;4.10;3.88;;;27.50;99.90;;;;;;5052435;28;20220;-49
2022/09/02 07:15:57;;;;;;;3.53;3.42;;;27.40;99.90;;;;;;5057545;28;20264;-48
2022/09/02 07:18:24;;;;;;;4.20;3.90;;;27.80;99.90;;;;;;5051685;28;20835;-49
2022/09/02 07:20:51;;;;;;;3.38;3.20;;;27.90;99.90;;;;;;5052435;28;20620;-48
2022/09/02 07:23:19;;;;;;;3.72;3.40;;;28.10;99.90;;;;;;5052373;28;20403;-50
2022/09/02 07:25:47;;;;;;;3.55;3.35;;;28.30;99.90;;;;;;5051645;28;20209;-49
2022/09/02 07:28:13;;;;;;;3.63;3.35;;;27.80;99.90;;;;;;5052720;28;20259;-50
2022/09/02 07:30:42;;;;;;;3.40;3.20;;;27.60;99.90;;;;;;5051706;28;20680;-49
2022/09/02 07:33:14;;;;;;;3.55;3.45;;;27.80;99.90;;;;;;5051853;28;20572;-50
2022/09/02 07:35:41;;;;;;;3.78;3.50;;;28.30;99.90;;;;;;5051365;28;20553;-50
2022/09/02 07:38:09;;;;;;;3.45;3.25;;;28.40;99.90;;;;;;5052836;28;20229;-49
2022/09/02 07:40:38;;;;;;;3.65;3.55;;;27.20;99.90;;;;;;5051780;28;20640;-49
2022/09/02 07:43:07;;;;;;;2.88;2.67;;;26.80;99.90;;;;;;5052036;28;20600;-49
2022/09/02 07:45:36;;;;;;;3.90;2.80;;;27.30;99.90;;;;;;5052165;28;20216;-50
2022/09/02 07:48:06;;;;;;;2.60;2.60;;;26.90;99.90;;;;;;5047949;28;20568;-49
2022/09/02 07:50:34;;;;;;;3.30;3.22;;;27.90;99.90;;;;;;5051092;28;20222;-49
2022/09/02 07:53:05;;;;;;;2.75;2.75;;;27.50;99.90;;;;;;5048677;28;20206;-48
2022/09/02 07:55:33;;;;;;;2.72;2.60;;;26.90;99.90;;;;;;5053359;28;20327;-49
2022/09/02 07:58:03;;;;;;;3.10;3.10;;;26.90;99.90;;;;;;5051813;28;20198;-49
2022/09/02 08:00:31;;;;;;;2.90;2.80;;;27.00;99.90;;;;;;5048307;28;20197;-49
2022/09/02 08:02:58;;;;;;;2.97;2.67;;;27.00;99.90;;;;;;5050884;28;20327;-49
2022/09/02 08:05:26;;;;;;;2.70;2.50;;;27.20;99.90;;;;;;5051456;28;20571;-48
2022/09/02 08:07:53;;;;;;;3.75;3.47;;;27.30;99.90;;;;;;5051841;28;20618;-49
2022/09/02 08:10:26;;;;;;;3.97;2.70;;;27.50;99.90;;;;;;5049064;28;20631;-49
2022/09/02 08:12:53;;;;;;;2.90;2.80;;;27.60;99.90;;;;;;5051698;28;20190;-49
2022/09/02 08:15:22;;;;;;;3.35;3.25;;;27.70;99.90;;;;;;5051471;28;20682;-49
2022/09/02 08:17:49;;;;;;;3.03;2.70;;;27.70;99.90;;;;;;5050865;28;20200;-49
2022/09/02 08:20:17;;;;;;;2.88;2.70;;;28.00;99.90;;;;;;5050925;28;20251;-48
2022/09/02 08:22:44;;;;;;;2.50;2.30;;;28.40;99.90;;;;;;5050905;28;20237;-49
2022/09/02 08:25:11;;;;;;;3.58;3.38;;;28.90;99.90;;;;;;5049554;28;20288;-50
2022/09/02 08:27:38;;;;;;;3.75;3.47;;;28.70;99.90;;;;;;5048499;28;20256;-49
2022/09/02 08:30:09;;;;;;;4.45;4.25;;;28.30;99.90;;;;;;5051313;28;20194;-48
2022/09/02 08:32:38;;;;;;;4.10;3.90;;;28.40;99.90;;;;;;5051225;28;20626;-49
2022/09/02 08:35:06;;;;;;;4.45;4.30;;;28.30;99.90;;;;;;5051079;28;20255;-48
2022/09/02 08:37:35;;;;;;;5.00;4.70;;;27.50;99.90;;;;;;5051010;28;20218;-49
2022/09/02 08:40:04;;;;;;;5.53;5.28;;;26.40;99.90;;;;;;5050740;28;20653;-49
2022/09/02 08:42:33;;;;;;;4.85;4.65;;;26.30;99.90;;;;;;5049934;28;20204;-49
2022/09/02 08:45:08;;;;;;;4.00;3.90;;;26.60;99.90;;;;;;5049567;28;20283;-48
2022/09/02 08:47:39;;;;;;;3.63;3.33;;;27.00;99.90;;;;;;5050830;28;20267;-48
2022/09/02 08:50:10;;;;;;;4.97;4.78;;;27.20;99.90;;;;;;5050204;28;20232;-49
2022/09/02 08:52:42;;;;;;;3.97;3.70;;;27.00;99.90;;;;;;5050954;28;20256;-49
2022/09/02 08:55:13;;;;;;;4.65;4.38;;;26.90;99.90;;;;;;5049779;28;20193;-48
2022/09/02 08:57:42;;;;;;;3.55;3.35;;;27.00;99.90;;;;;;5045251;28;20660;-49
2022/09/02 09:00:10;;;;;;;4.95;4.75;;;27.20;99.90;;;;;;5048064;28;20306;-48
2022/09/02 09:02:55;;;;;;;4.38;4.18;;;26.90;99.90;;;;;;5047925;28;20259;-49
2022/09/02 09:05:28;;;;;;;4.68;4.28;;;27.40;99.90;;;;;;5047673;28;20202;-48
2022/09/02 09:08:04;;;;;;;3.53;3.33;;;27.60;99.90;;;;;;5055880;28;20630;-49
2022/09/02 09:10:39;;;;;;;4.78;4.47;;;27.00;99.90;;;;;;5048691;28;20634;-48
2022/09/02 09:13:36;;;;;;;5.18;4.90;;;27.00;99.90;;;;;;5047089;28;20199;-49
2022/09/02 09:16:09;;;;;;;5.43;5.13;;;26.70;99.90;;;;;;5048123;28;20257;-49
2022/09/02 09:18:40;;;;;;;5.50;5.07;;;26.50;99.90;;;;;;5048584;28;20210;-48
2022/09/02 09:21:07;;;;;;;5.20;4.77;;;26.00;99.90;;;;;;5049129;28;20293;-49
2022/09/02 09:23:37;;;;;;;4.90;4.70;;;25.90;99.90;;;;;;5051390;28;20691;-50
2022/09/02 09:26:09;;;;;;;6.13;5.57;;;26.00;99.90;;;;;;5044560;28;20268;-49
2022/09/02 09:28:42;;;;;;;5.13;4.90;;;26.30;99.90;;;;;;5031752;28;20260;-49
2022/09/02 09:31:12;;;;;;;5.00;4.80;;;25.80;99.90;;;;;;5036126;28;20284;-49
2022/09/02 09:33:54;;;;;;;4.80;4.60;;;26.60;99.90;;;;;;5048659;28;20320;-49
2022/09/02 09:36:42;;;;;;;5.87;4.53;;;27.30;99.90;;;;;;5049174;28;20221;-49
2022/09/02 09:39:18;;;;;;;6.00;5.77;;;27.40;99.90;;;;;;5045196;28;20202;-49
2022/09/02 09:41:45;;;;;;;5.27;5.07;;;26.40;99.90;;;;;;5046965;28;20197;-49
2022/09/02 09:44:39;;;;;;;5.90;5.37;;;26.60;99.90;;;;;;5050535;28;20214;-50
2022/09/02 09:47:09;;;;;;;6.83;6.47;;;26.40;99.90;;;;;;5047653;28;20222;-49
2022/09/02 09:49:39;;;;;;;5.57;5.27;;;26.30;99.90;;;;;;5049660;28;20573;-48
2022/09/02 09:52:26;;;;;;;7.10;6.40;;;26.90;99.90;;;;;;5051483;28;20276;-48
2022/09/02 09:55:18;;;;;;;5.27;5.07;;;27.30;99.90;;;;;;5049809;28;20239;-48
2022/09/02 09:57:47;;;;;;;6.37;5.87;;;27.10;99.90;;;;;;5049349;28;20217;-48
2022/09/02 10:00:20;;;;;;;6.77;6.20;;;26.60;99.90;;;;;;5047235;28;20204;-49
2022/09/02 10:02:50;;;;;;;6.67;5.93;;;25.80;99.90;;;;;;5047460;28;20243;-50
2022/09/02 10:05:29;;;;;;;5.60;5.43;;;25.60;99.90;;;;;;5043726;28;20209;-50
2022/09/02 10:07:58;;;;;;;7.20;6.77;;;25.80;99.90;;;;;;5049633;28;20206;-48
2022/09/02 10:10:27;;;;;;;7.63;7.23;;;26.00;99.90;;;;;;5049384;28;20210;-49
2022/09/02 10:12:57;;;;;;;8.13;7.33;;;25.60;99.90;;;;;;5049404;28;20229;-48
2022/09/02 10:15:37;;;;;;;7.40;6.90;;;25.40;99.90;;;;;;5049460;28;20198;-48
2022/09/02 10:18:17;;;;;;;5.73;5.53;;;25.60;99.90;;;;;;5044930;28;20296;-50
2022/09/02 10:20:56;;;;;;;7.40;7.00;;;26.00;99.90;;;;;;5046567;28;20205;-49
2022/09/02 10:23:43;;;;;;;6.73;6.43;;;26.30;99.90;;;;;;5049325;28;20218;-49
2022/09/02 10:26:24;;;;;;;7.63;7.07;;;26.40;99.90;;;;;;5036540;28;20280;-50
2022/09/02 10:29:28;;;;;;;8.10;7.53;;;27.00;99.90;;;;;;5047717;28;20198;-49
2022/09/02 10:32:08;;;;;;;7.50;7.00;;;26.80;99.90;;;;;;5046488;28;20202;-48
2022/09/02 10:34:43;;;;;;;7.38;6.88;;;26.70;99.90;;;;;;5048060;28;20239;-49
2022/09/02 10:37:19;;;;;;;8.10;7.40;;;26.40;99.90;;;;;;5048214;28;20637;-48
2022/09/02 10:40:04;;;;;;;6.87;6.50;;;25.30;99.90;;;;;;5049412;28;20275;-50
2022/09/02 10:42:40;;;;;;;8.17;7.73;;;25.60;99.90;;;;;;5047715;28;20248;-48
2022/09/02 10:45:16;;;;;;;9.27;8.47;;;25.40;99.90;;;;;;5053928;28;20249;-49
2022/09/02 10:47:50;;;;;;;7.67;7.00;;;25.00;99.90;;;;;;5048622;28;20698;-49
2022/09/02 10:50:21;;;;;;;8.67;8.07;;;25.00;99.90;;;;;;5055165;28;20433;-49
2022/09/02 10:53:08;;;;;;;6.70;6.30;;;24.40;99.90;;;;;;5054181;28;20197;-49
2022/09/02 10:55:44;;;;;;;6.63;6.23;;;24.40;99.90;;;;;;5053611;28;20276;-49
2022/09/02 10:58:20;;;;;;;5.47;5.27;;;23.90;99.90;;;;;;5053951;28;20617;-49
2022/09/02 11:00:51;;;;;;;7.20;6.70;;;23.70;99.90;;;;;;5053163;28;20420;-49
2022/09/02 11:03:24;;;;;;;6.13;5.93;;;23.30;99.90;;;;;;5053356;28;20547;-50
2022/09/02 11:05:53;;;;;;;8.07;7.37;;;23.40;99.90;;;;;;5053869;28;20222;-50
2022/09/02 11:08:32;;;;;;;6.87;6.57;;;23.20;99.90;;;;;;5053992;28;20629;-49
2022/09/02 11:11:05;;;;;;;6.67;6.37;;;23.20;99.90;;;;;;5053838;28;20634;-50
2022/09/02 11:13:38;;;;;;;6.27;6.07;;;23.40;99.90;;;;;;5044290;28;20730;-49
2022/09/02 11:16:13;;;;;;;6.50;6.20;;;23.30;99.90;;;;;;5046523;28;20359;-48
2022/09/02 11:18:46;;;;;;;6.30;6.00;;;23.30;99.90;;;;;;5051803;28;20202;-49
2022/09/02 11:21:27;;;;;;;6.03;5.73;;;23.50;99.90;;;;;;5051519;28;20259;-49
2022/09/02 11:24:00;;;;;;;8.07;7.50;;;23.50;99.90;;;;;;5051758;28;20224;-48
2022/09/02 11:26:32;;;;;;;8.43;7.93;;;23.60;99.90;;;;;;5052655;28;20222;-50
2022/09/02 11:29:04;;;;;;;7.30;6.80;;;23.70;99.90;;;;;;5052767;28;20664;-48
2022/09/02 11:31:36;;;;;;;8.13;7.43;;;23.80;99.90;;;;;;5051252;28;20201;-49
2022/09/02 11:34:11;;;;;;;8.73;7.10;;;23.40;99.90;;;;;;5033654;28;20739;-49
2022/09/02 11:36:39;;;;;;;7.10;6.80;;;23.20;99.90;;;;;;5048572;28;20260;-49
2022/09/02 11:39:13;;;;;;;7.17;6.77;;;23.20;99.90;;;;;;5048786;28;20207;-49
2022/09/02 11:42:02;;;;;;;7.77;7.37;;;23.40;99.90;;;;;;5049583;28;20209;-49
2022/09/02 11:44:59;;;;;;;6.80;6.37;;;23.30;99.90;;;;;;5051588;28;20210;-49
2022/09/02 11:47:55;;;;;;;7.57;7.17;;;23.40;99.90;;;;;;5050664;28;20313;-50
2022/09/02 11:50:46;;;;;;;8.47;7.97;;;23.30;99.90;;;;;;5040880;28;20206;-49
2022/09/02 11:53:21;;;;;;;8.33;7.60;;;23.20;99.90;;;;;;5050381;28;20208;-50
2022/09/02 11:55:55;;;;;;;14.70;6.53;;;23.20;99.90;;;;;;5050237;28;20221;-49
2022/09/02 11:58:34;;;;;;;7.33;6.93;;;23.20;99.90;;;;;;5046685;28;20208;-49
2022/09/02 12:01:06;;;;;;;6.40;6.10;;;23.30;99.90;;;;;;5053017;28;20239;-48
2022/09/02 12:03:35;;;;;;;7.47;7.10;;;23.40;99.90;;;;;;5053090;28;20259;-49
2022/09/02 12:06:10;;;;;;;6.93;6.33;;;23.40;99.90;;;;;;5043797;28;20355;-49
2022/09/02 12:09:01;;;;;;;7.30;6.83;;;23.40;99.90;;;;;;5050742;28;20201;-48
2022/09/02 12:11:53;;;;;;;5.90;5.63;;;23.40;99.90;;;;;;5045635;28;20210;-49
2022/09/02 12:15:06;;;;;;;6.97;6.67;;;23.40;99.90;;;;;;5049592;28;20294;-50
2022/09/02 12:18:09;;;;;;;6.53;6.23;;;23.50;99.90;;;;;;5048894;28;20699;-49
2022/09/02 12:21:10;;;;;;;6.07;5.87;;;23.30;99.90;;;;;;5048787;28;20286;-49
2022/09/02 12:24:26;;;;;;;5.47;5.27;;;23.30;99.90;;;;;;5052150;28;20292;-49
2022/09/02 12:27:26;;;;;;;7.23;6.57;;;23.30;99.90;;;;;;5051983;28;20279;-48
2022/09/02 12:29:55;;;;;;;6.97;6.60;;;23.30;99.90;;;;;;5050792;28;20263;-49
2022/09/02 12:33:03;;;;;;;6.40;6.10;;;23.40;99.90;;;;;;5052089;28;20228;-50
2022/09/02 12:35:50;;;;;;;6.67;6.27;;;23.50;99.90;;;;;;5052033;28;20197;-49
2022/09/02 12:38:27;;;;;;;5.73;5.53;;;23.50;99.90;;;;;;5051032;28;20193;-49
2022/09/02 12:41:00;;;;;;;4.97;4.67;;;23.40;99.90;;;;;;5049597;28;20206;-50
2022/09/02 12:43:31;;;;;;;6.50;6.10;;;23.40;99.90;;;;;;5051521;28;20275;-48
2022/09/02 12:46:12;;;;;;;6.23;5.80;;;23.60;99.90;;;;;;5051579;28;20241;-49
2022/09/02 12:48:44;;;;;;;6.30;6.00;;;23.60;99.90;;;;;;5051056;28;20846;-49
2022/09/02 12:51:11;;;;;;;4.77;4.57;;;23.60;99.90;;;;;;5051938;28;20690;-50
2022/09/02 12:53:45;;;;;;;6.28;5.82;;;23.60;99.90;;;;;;5047566;28;20444;-49
2022/09/02 12:56:22;;;;;;;5.63;5.43;;;23.60;99.90;;;;;;5050306;28;20296;-50
2022/09/02 12:58:52;;;;;;;4.80;4.60;;;23.60;99.90;;;;;;5050186;28;20193;-50
2022/09/02 13:01:34;;;;;;;5.03;4.80;;;23.60;99.90;;;;;;5052746;28;20213;-49
2022/09/02 13:04:25;;;;;;;5.80;5.60;;;23.40;99.90;;;;;;5048161;28;20214;-49
2022/09/02 13:07:30;;;;;;;5.07;4.87;;;23.50;99.90;;;;;;5052652;28;20723;-49
2022/09/02 13:10:23;;;;;;;5.33;5.10;;;23.50;99.90;;;;;;5051522;28;20196;-49
2022/09/02 13:13:19;;;;;;;4.93;4.63;;;23.70;99.90;;;;;;5049751;28;20194;-50